Time;durP1;ratioP1;P1;durP2;ratioP2;P2;SDS_P1;SDS_P2;PMS_P1;PMS_P2;Temp;Humidity;BMP_temperature;BMP_pressure;BME280_temperature;BME280_humidity;BME280_pressure;Samples;Min_cycle;Max_cycle;Signal;HPM_P1;HPM_P2
2022/12/04 00:00:10;;;;;;;24.40;13.60;;;;;;;0.16;96.29;102734.98;104162;1283;70928;-74
2022/12/04 00:02:58;;;;;;;21.90;11.40;;;;;;;0.20;96.46;102737.05;104017;1280;74905;-73
2022/12/04 00:05:28;;;;;;;24.20;12.80;;;;;;;0.18;95.62;102735.67;104131;1277;61742;-72
2022/12/04 00:07:57;;;;;;;19.00;11.10;;;;;;;0.17;95.33;102736.01;104168;1280;60714;-74
2022/12/04 00:10:26;;;;;;;21.30;12.90;;;;;;;0.11;95.92;102741.48;104109;1282;73869;-75
2022/12/04 00:12:54;;;;;;;21.50;12.20;;;;;;;0.04;96.18;102747.27;104375;1276;71755;-80
2022/12/04 00:15:23;;;;;;;16.00;9.50;;;;;;;-0.04;94.93;102748.78;104264;1280;70769;-74
2022/12/04 00:17:54;;;;;;;23.20;12.80;;;;;;;-0.03;95.56;102744.17;104183;1279;71204;-75
2022/12/04 00:20:23;;;;;;;17.90;9.60;;;;;;;-0.06;95.71;102739.02;104288;1277;59971;-73
2022/12/04 00:22:52;;;;;;;17.90;11.20;;;;;;;-0.10;94.96;102737.63;104359;1286;60553;-73
2022/12/04 00:25:20;;;;;;;20.80;12.40;;;;;;;-0.07;96.11;102745.70;104213;1285;74524;-75
2022/12/04 00:27:49;;;;;;;21.50;12.50;;;;;;;-0.00;95.73;102747.44;104354;1276;71689;-75
2022/12/04 00:30:18;;;;;;;17.60;10.70;;;;;;;-0.05;94.58;102749.81;104349;1281;70088;-74
2022/12/04 00:32:47;;;;;;;20.00;11.40;;;;;;;-0.04;93.67;102747.93;104272;1280;71981;-73
2022/12/04 00:35:17;;;;;;;21.30;11.90;;;;;;;-0.02;95.20;102749.65;104200;1292;60777;-73
2022/12/04 00:37:45;;;;;;;18.10;11.20;;;;;;;0.05;95.17;102747.98;104330;1292;60484;-73
2022/12/04 00:40:15;;;;;;;18.90;11.60;;;;;;;0.01;93.62;102752.41;104321;1290;71733;-74
2022/12/04 00:42:44;;;;;;;22.30;11.20;;;;;;;0.08;95.13;102753.63;104322;1280;72429;-73
2022/12/04 00:45:13;;;;;;;20.90;10.80;;;;;;;0.18;96.96;102751.78;104349;1292;67905;-73
2022/12/04 00:47:42;;;;;;;22.90;12.00;;;;;;;0.06;94.03;102749.17;104326;1280;71387;-74
2022/12/04 00:50:11;;;;;;;16.60;10.20;;;;;;;0.02;94.04;102750.70;104124;1292;60504;-72
2022/12/04 00:52:40;;;;;;;15.50;9.30;;;;;;;-0.01;93.35;102748.80;104278;1280;60375;-72
2022/12/04 00:55:09;;;;;;;18.30;10.20;;;;;;;-0.09;93.15;102750.13;104266;1292;74038;-71
2022/12/04 00:57:38;;;;;;;20.40;11.20;;;;;;;-0.02;94.08;102751.88;104333;1290;72048;-71
2022/12/04 01:00:07;;;;;;;19.30;11.00;;;;;;;-0.04;94.15;102747.24;104318;1280;70326;-77
2022/12/04 01:02:36;;;;;;;18.80;10.50;;;;;;;-0.03;94.14;102741.44;104264;1283;72302;-72
2022/12/04 01:05:06;;;;;;;22.40;12.10;;;;;;;-0.07;93.97;102743.30;104175;1283;59679;-72
2022/12/04 01:07:35;;;;;;;20.90;11.90;;;;;;;-0.11;93.59;102738.48;104201;1287;61799;-72
2022/12/04 01:10:07;;;;;;;22.30;11.40;;;;;;;-0.06;94.56;102739.88;104259;1278;73026;-72
2022/12/04 01:12:36;;;;;;;20.60;11.30;;;;;;;-0.02;93.88;102738.52;104305;1291;71227;-72
2022/12/04 01:15:06;;;;;;;19.60;11.20;;;;;;;-0.11;93.95;102735.73;104366;1276;69286;-71
2022/12/04 01:17:35;;;;;;;16.80;10.40;;;;;;;-0.10;94.42;102734.20;104302;1281;71217;-72
2022/12/04 01:20:05;;;;;;;19.70;12.10;;;;;;;-0.06;94.17;102735.93;104260;1290;60443;-74
2022/12/04 01:22:34;;;;;;;19.20;10.20;;;;;;;-0.03;93.63;102729.77;104242;1280;59514;-74
2022/12/04 01:25:04;;;;;;;17.60;9.90;;;;;;;-0.07;93.09;102729.25;104227;1292;71214;-72
2022/12/04 01:27:32;;;;;;;19.10;10.60;;;;;;;-0.02;94.42;102730.12;104188;1280;72344;-71
2022/12/04 01:30:02;;;;;;;19.90;10.50;;;;;;;-0.04;93.57;102729.77;104079;1283;68989;-72
2022/12/04 01:32:31;;;;;;;20.50;11.90;;;;;;;-0.14;93.22;102725.63;104222;1280;71565;-72
2022/12/04 01:35:00;;;;;;;20.50;10.40;;;;;;;-0.11;94.28;102718.10;104317;1277;59126;-72
2022/12/04 01:37:31;;;;;;;18.40;9.90;;;;;;;-0.03;95.33;102720.88;104092;1284;59306;-71
2022/12/04 01:40:00;;;;;;;19.30;11.60;;;;;;;-0.11;93.20;102721.02;104225;1280;73304;-71
2022/12/04 01:42:29;;;;;;;21.20;10.80;;;;;;;-0.15;94.59;102723.73;104159;1277;68698;-72
2022/12/04 01:45:50;;;;;;;20.80;10.50;;;;;;;-0.10;94.54;102725.30;104244;1283;70316;-72
2022/12/04 01:48:44;;;;;;;18.30;10.70;;;;;;;-0.05;94.06;102718.64;104247;1286;72011;-73
2022/12/04 01:51:41;;;;;;;18.80;11.20;;;;;;;-0.06;93.47;102724.29;104309;1284;61216;-75
2022/12/04 01:54:41;;;;;;;19.80;11.20;;;;;;;-0.01;94.30;102726.35;104368;1286;60217;-74
2022/12/04 01:57:22;;;;;;;17.20;9.50;;;;;;;0.03;94.56;102726.02;104368;1280;73224;-76
2022/12/04 02:00:11;;;;;;;22.50;10.90;;;;;;;-0.03;93.39;102721.39;104247;1286;70208;-75
2022/12/04 02:02:46;;;;;;;18.50;9.80;;;;;;;-0.05;93.95;102721.71;104387;1281;68738;-74
2022/12/04 02:05:19;;;;;;;21.50;11.70;;;;;;;-0.09;93.76;102717.42;104220;1287;74975;-74
2022/12/04 02:07:54;;;;;;;18.00;11.30;;;;;;;-0.08;93.69;102721.88;104347;1284;60364;-72
2022/12/04 02:10:55;;;;;;;22.70;11.70;;;;;;;-0.08;94.19;102723.08;104183;1282;59484;-73
2022/12/04 02:13:40;;;;;;;24.30;11.80;;;;;;;-0.03;94.73;102725.84;104157;1277;72749;-71
2022/12/04 02:16:56;;;;;;;21.60;11.20;;;;;;;-0.08;94.29;102724.11;104248;1291;61687;-71
2022/12/04 02:19:54;;;;;;;19.00;10.50;;;;;;;-0.13;93.65;102721.34;104027;1277;68571;-71
2022/12/04 02:22:58;;;;;;;20.90;11.20;;;;;;;-0.17;93.83;102720.80;104271;1290;62606;-72
2022/12/04 02:26:00;;;;;;;22.10;12.80;;;;;;;-0.14;95.40;102729.90;104263;1287;62269;-77
2022/12/04 02:29:07;;;;;;;20.70;11.00;;;;;;;-0.11;95.81;102733.17;104242;1284;59122;-75
2022/12/04 02:31:48;;;;;;;23.80;12.00;;;;;;;-0.07;95.80;102737.64;103765;1295;71614;-73
2022/12/04 02:34:30;;;;;;;19.60;10.90;;;;;;;-0.03;95.84;102736.80;104375;1277;72042;-74
2022/12/04 02:37:10;;;;;;;22.70;11.60;;;;;;;-0.08;94.85;102737.81;104430;1280;69191;-74
2022/12/04 02:40:05;;;;;;;18.50;12.00;;;;;;;0.01;95.92;102734.24;104454;1275;73755;-73
2022/12/04 02:42:52;;;;;;;22.80;11.80;;;;;;;-0.10;95.71;102736.77;104395;1280;61372;-73
2022/12/04 02:45:29;;;;;;;19.40;11.10;;;;;;;-0.04;96.78;102738.51;104368;1286;59740;-74
2022/12/04 02:48:01;;;;;;;19.70;11.90;;;;;;;-0.08;95.73;102732.33;104336;1287;73619;-73
2022/12/04 02:50:34;;;;;;;22.30;12.00;;;;;;;-0.08;95.90;102734.39;104394;1286;70713;-73
2022/12/04 02:53:24;;;;;;;23.40;12.10;;;;;;;-0.08;96.29;102735.06;104134;1283;69455;-75
2022/12/04 02:56:05;;;;;;;20.10;11.50;;;;;;;-0.05;96.61;102733.88;104321;1280;71745;-75
2022/12/04 02:58:45;;;;;;;23.60;11.80;;;;;;;-0.13;96.39;102731.63;104241;1284;62141;-76
2022/12/04 03:01:19;;;;;;;25.30;11.70;;;;;;;-0.06;97.22;102729.95;104193;1284;61430;-74
2022/12/04 03:04:10;;;;;;;23.00;12.50;;;;;;;0.05;97.76;102734.42;104231;1280;71714;-74
2022/12/04 03:06:43;;;;;;;21.40;12.30;;;;;;;0.05;96.75;102739.74;104166;1287;72280;-74
2022/12/04 03:09:23;;;;;;;21.20;11.60;;;;;;;0.00;95.39;102736.31;104247;1284;70615;-74
2022/12/04 03:12:02;;;;;;;20.40;12.50;;;;;;;0.11;97.51;102733.08;104262;1287;71603;-73
2022/12/04 03:14:41;;;;;;;24.90;12.40;;;;;;;0.05;95.87;102731.01;104227;1286;60194;-75
2022/12/04 03:17:29;;;;;;;20.90;11.50;;;;;;;0.07;95.63;102733.06;104144;1287;60926;-76
2022/12/04 03:20:05;;;;;;;19.10;10.90;;;;;;;-0.02;95.29;102729.44;104244;1283;74085;-74
2022/12/04 03:22:38;;;;;;;27.10;12.20;;;;;;;0.02;96.03;102729.28;104098;1283;72282;-72
2022/12/04 03:25:09;;;;;;;23.40;12.10;;;;;;;-0.00;94.53;102728.59;104271;1287;67952;-71
2022/12/04 03:27:53;;;;;;;24.00;12.10;;;;;;;-0.07;95.08;102728.73;104196;1283;73071;-72
2022/12/04 03:30:23;;;;;;;24.20;10.90;;;;;;;-0.06;95.45;102729.94;104067;1290;59913;-77
2022/12/04 03:33:01;;;;;;;21.50;11.70;;;;;;;-0.10;94.84;102726.67;104277;1284;61288;-73
2022/12/04 03:35:48;;;;;;;19.50;10.30;;;;;;;-0.04;95.27;102725.48;104324;1276;72125;-75
2022/12/04 03:38:43;;;;;;;18.30;10.60;;;;;;;-0.03;94.64;102729.77;104175;1281;72577;-79
2022/12/04 03:41:31;;;;;;;24.60;12.10;;;;;;;-0.12;93.97;102728.88;104228;1286;70019;-79
2022/12/04 03:44:36;;;;;;;20.20;11.50;;;;;;;-0.14;93.97;102727.84;104675;1284;71916;-81
2022/12/04 03:47:19;;;;;;;17.20;10.00;;;;;;;-0.08;94.48;102731.46;105103;1287;59028;-80
2022/12/04 03:50:12;;;;;;;22.00;11.30;;;;;;;-0.04;94.71;102733.20;105107;1283;58751;-80
2022/12/04 03:53:10;;;;;;;22.50;11.20;;;;;;;-0.01;94.99;102738.35;104377;1283;71662;-75
2022/12/04 03:56:01;;;;;;;21.00;11.50;;;;;;;-0.01;94.48;102739.38;104401;1282;72575;-75
2022/12/04 03:58:34;;;;;;;20.60;10.00;;;;;;;-0.04;93.32;102744.67;104380;1280;70451;-74
2022/12/04 04:01:06;;;;;;;19.40;10.70;;;;;;;-0.07;93.08;102744.15;104098;1283;73876;-74
2022/12/04 04:03:41;;;;;;;20.80;10.80;;;;;;;-0.10;92.81;102741.56;104166;1292;59596;-74
2022/12/04 04:06:21;;;;;;;19.80;10.30;;;;;;;-0.09;94.22;102739.68;104258;1291;60266;-76
2022/12/04 04:08:58;;;;;;;22.80;10.80;;;;;;;-0.12;93.42;102743.78;104334;1291;73146;-74
2022/12/04 04:11:35;;;;;;;20.90;11.30;;;;;;;-0.14;93.92;102743.44;104386;1282;71722;-74
2022/12/04 04:26:07;;;;;;;19.60;10.90;;;;;;;-0.20;96.15;102748.21;104387;1280;72748;-73
2022/12/04 04:28:40;;;;;;;21.60;10.50;;;;;;;-0.22;95.98;102756.23;104261;1280;72539;-72
2022/12/04 04:31:20;;;;;;;23.50;11.70;;;;;;;-0.25;95.33;102755.55;104270;1287;70906;-74
2022/12/04 04:34:08;;;;;;;21.40;12.00;;;;;;;-0.30;95.64;102751.74;104368;1292;74035;-72
2022/12/04 04:37:21;;;;;;;22.90;11.90;;;;;;;-0.28;96.96;102744.90;104318;1283;60351;-75
2022/12/04 04:40:37;;;;;;;22.90;11.30;;;;;;;-0.19;97.74;102746.50;104376;1287;60683;-72
2022/12/04 04:43:23;;;;;;;25.70;11.20;;;;;;;-0.19;95.98;102748.38;104273;1275;74141;-72
2022/12/04 04:46:17;;;;;;;22.50;11.70;;;;;;;-0.16;96.32;102748.21;104224;1283;70720;-74
2022/12/04 04:48:52;;;;;;;24.50;12.50;;;;;;;-0.13;96.87;102751.66;104678;1282;71125;-73
2022/12/04 04:51:21;;;;;;;25.10;12.30;;;;;;;-0.09;97.14;102750.30;104506;1288;73099;-74
2022/12/04 04:53:56;;;;;;;26.20;13.30;;;;;;;-0.04;96.37;102753.59;104315;1282;62833;-77
2022/12/04 04:56:26;;;;;;;22.80;12.00;;;;;;;-0.03;98.02;102752.90;104357;1286;59102;-75
2022/12/04 04:58:55;;;;;;;21.30;11.70;;;;;;;-0.03;97.05;102751.02;104313;1284;71624;-78
2022/12/04 05:01:27;;;;;;;23.80;12.10;;;;;;;-0.06;96.22;102747.39;104290;1283;69698;-75
2022/12/04 05:03:56;;;;;;;22.80;11.90;;;;;;;-0.14;95.43;102745.66;104233;1286;68772;-74
2022/12/04 05:06:25;;;;;;;23.60;11.70;;;;;;;-0.11;96.71;102749.11;104218;1283;71509;-73
2022/12/04 05:08:54;;;;;;;23.20;11.50;;;;;;;-0.13;97.01;102751.66;104137;1278;60122;-73
2022/12/04 05:11:23;;;;;;;23.30;11.70;;;;;;;-0.11;96.30;102756.80;104235;1286;61884;-74
2022/12/04 05:13:51;;;;;;;23.40;11.50;;;;;;;-0.18;96.25;102757.46;104236;1283;74489;-73
2022/12/04 05:16:21;;;;;;;21.30;11.40;;;;;;;-0.14;97.56;102755.58;104265;1283;72295;-72
2022/12/04 05:21:37;;;;;;;20.30;10.10;;;;;;;-0.17;96.27;102760.73;104184;1280;71870;-72
2022/12/04 05:24:07;;;;;;;21.50;10.90;;;;;;;-0.17;95.26;102761.58;104090;1290;60038;-73
2022/12/04 05:26:36;;;;;;;24.00;13.20;;;;;;;-0.29;95.00;102762.54;104170;1292;59822;-71
2022/12/04 05:29:05;;;;;;;21.80;11.20;;;;;;;-0.18;96.74;102761.58;104134;1292;71374;-73
2022/12/04 05:31:34;;;;;;;25.10;13.10;;;;;;;-0.17;95.84;102761.58;104146;1287;70105;-76
2022/12/04 05:34:03;;;;;;;20.70;12.30;;;;;;;-0.20;95.56;102762.58;104288;1292;68663;-75
2022/12/04 05:36:32;;;;;;;19.70;11.60;;;;;;;-0.25;94.60;102761.35;104169;1290;72435;-75
2022/12/04 05:39:01;;;;;;;26.40;11.60;;;;;;;-0.29;94.96;102762.02;104413;1280;60929;-76
2022/12/04 05:41:29;;;;;;;23.00;12.20;;;;;;;-0.34;95.31;102768.84;104311;1289;59795;-74
2022/12/04 05:43:58;;;;;;;22.90;12.60;;;;;;;-0.28;96.09;102767.52;104391;1281;70861;-76
2022/12/04 05:46:27;;;;;;;26.60;13.30;;;;;;;-0.31;95.50;102770.75;104442;1283;69829;-76
2022/12/04 05:48:56;;;;;;;21.80;12.60;;;;;;;-0.30;95.38;102768.02;104367;1289;68412;-75
2022/12/04 05:51:25;;;;;;;27.30;12.40;;;;;;;-0.22;97.27;102772.68;104176;1284;72414;-78
2022/12/04 05:53:54;;;;;;;25.00;12.90;;;;;;;-0.27;96.12;102778.47;104384;1289;61105;-73
2022/12/04 05:56:23;;;;;;;23.90;12.50;;;;;;;-0.24;95.73;102777.30;104179;1281;60789;-71
2022/12/04 05:58:51;;;;;;;23.30;11.30;;;;;;;-0.30;94.80;102783.93;104221;1292;74110;-75
2022/12/04 06:01:23;;;;;;;23.70;12.10;;;;;;;-0.29;95.75;102786.67;104282;1280;71735;-73
2022/12/04 06:03:52;;;;;;;25.40;12.30;;;;;;;-0.16;96.90;102783.68;106524;1287;68692;-75
2022/12/04 06:06:24;;;;;;;21.80;11.60;;;;;;;-0.16;94.86;102784.52;106649;1281;73113;-72
2022/12/04 06:08:56;;;;;;;17.30;10.00;;;;;;;-0.11;96.15;102783.53;106304;1284;62073;-73
2022/12/04 06:11:32;;;;;;;21.60;12.10;;;;;;;-0.11;94.23;102784.55;106471;1290;60338;-73
2022/12/04 06:14:03;;;;;;;20.00;10.70;;;;;;;-0.15;93.80;102785.39;106578;1287;73707;-72
2022/12/04 06:16:36;;;;;;;19.10;11.50;;;;;;;-0.16;94.23;102790.17;106768;1275;70162;-74
2022/12/04 06:19:08;;;;;;;;;;;;;;;-0.21;93.44;102791.02;106618;1277;68770;-74
2022/12/04 06:21:39;;;;;;;23.40;13.40;;;;;;;-0.20;93.88;102786.56;106340;1277;73531;-76
2022/12/04 06:24:14;;;;;;;23.80;12.60;;;;;;;-0.20;94.00;102788.11;106341;1283;61954;-76
2022/12/04 06:26:43;;;;;;;21.90;11.40;;;;;;;-0.27;93.81;102784.98;106315;1283;59368;-77
2022/12/04 06:29:32;;;;;;;21.00;11.90;;;;;;;-0.22;93.63;102784.66;106163;1287;72459;-77
2022/12/04 06:32:01;;;;;;;21.40;12.00;;;;;;;-0.19;93.88;102786.06;106520;1286;70296;-76
2022/12/04 06:34:30;;;;;;;20.20;12.30;;;;;;;-0.32;93.20;102787.52;106100;1279;68728;-78
2022/12/04 06:36:59;;;;;;;25.30;11.50;;;;;;;-0.20;94.31;102787.25;106436;1273;73308;-76
2022/12/04 06:39:27;;;;;;;22.40;12.60;;;;;;;-0.18;93.42;102785.71;106161;1283;62041;-74
2022/12/04 06:41:56;;;;;;;20.20;11.90;;;;;;;-0.10;94.69;102791.42;106426;1280;58742;-74
2022/12/04 06:44:25;;;;;;;21.30;12.00;;;;;;;-0.14;94.52;102796.88;106390;1277;73642;-75
2022/12/04 06:46:53;;;;;;;22.50;12.40;;;;;;;-0.02;95.01;102800.52;106562;1283;71601;-76
2022/12/04 06:49:24;;;;;;;22.00;11.50;;;;;;;0.03;95.10;102796.09;106395;1280;67943;-76
2022/12/04 06:51:52;;;;;;;22.10;12.40;;;;;;;0.01;94.01;102791.13;106403;1285;73878;-75
2022/12/04 06:54:21;;;;;;;21.20;12.60;;;;;;;0.03;94.10;102796.27;106178;1276;58629;-76
2022/12/04 06:56:50;;;;;;;24.40;13.70;;;;;;;-0.01;93.34;102799.33;106244;1282;59737;-75
2022/12/04 06:59:19;;;;;;;23.10;12.80;;;;;;;0.07;93.84;102798.85;106557;1276;70797;-76
2022/12/04 07:01:48;;;;;;;21.20;12.20;;;;;;;0.07;92.46;102800.91;106524;1275;70487;-76
2022/12/04 07:04:16;;;;;;;20.30;12.60;;;;;;;0.12;92.63;102803.84;106283;1280;69681;-75
2022/12/04 07:06:45;;;;;;;24.70;14.10;;;;;;;-0.00;92.32;102796.94;106386;1277;71803;-75
2022/12/04 07:09:16;;;;;;;20.20;12.60;;;;;;;0.06;92.90;102798.67;106480;1272;59766;-76
2022/12/04 07:11:45;;;;;;;22.00;12.90;;;;;;;0.14;91.86;102796.15;106247;1286;59657;-78
2022/12/04 07:14:14;;;;;;;19.90;11.90;;;;;;;0.13;92.04;102797.70;106445;1280;71304;-77
2022/12/04 07:16:43;;;;;;;26.50;13.90;;;;;;;0.24;91.73;102798.59;106645;1278;70316;-80
2022/12/04 07:19:13;;;;;;;20.00;11.20;;;;;;;0.29;91.65;102798.77;106302;1283;70208;-73
2022/12/04 07:21:42;;;;;;;24.30;13.70;;;;;;;0.38;92.63;102801.90;106064;1286;73022;-75
2022/12/04 07:24:16;;;;;;;24.80;14.70;;;;;;;0.34;90.48;102802.57;106268;1284;60114;-74
2022/12/04 07:26:45;;;;;;;18.30;12.10;;;;;;;0.39;91.29;102804.82;106408;1277;61125;-75
2022/12/04 07:29:14;;;;;;;27.00;12.80;;;;;;;0.32;89.49;102808.91;106092;1277;72897;-74
2022/12/04 07:31:43;;;;;;;21.00;12.30;;;;;;;0.36;89.28;102805.84;106453;1281;69319;-76
2022/12/04 07:34:12;;;;;;;20.20;12.40;;;;;;;0.40;89.59;102802.59;106460;1280;69829;-76
2022/12/04 07:36:40;;;;;;;20.00;11.70;;;;;;;0.41;88.37;102809.27;106460;1287;73850;-78
2022/12/04 07:39:09;;;;;;;23.20;11.40;;;;;;;0.09;88.27;102796.98;106442;1286;60409;-73
2022/12/04 07:41:37;;;;;;;19.60;11.40;;;;;;;0.24;88.95;102806.30;106427;1287;61334;-77
2022/12/04 07:44:07;;;;;;;20.80;11.00;;;;;;;0.27;88.17;102804.26;105314;1279;1275877;-75
2022/12/04 07:46:35;;;;;;;21.90;12.20;;;;;;;0.26;89.05;102805.79;106457;1280;71570;-75
2022/12/04 07:49:04;;;;;;;24.30;12.70;;;;;;;0.27;89.25;102807.17;106436;1287;67821;-70
2022/12/04 07:51:33;;;;;;;17.70;11.00;;;;;;;0.26;88.61;102814.88;106443;1289;71151;-71
2022/12/04 07:54:01;;;;;;;19.80;12.50;;;;;;;0.37;89.11;102812.86;106468;1277;60643;-70
2022/12/04 07:56:32;;;;;;;20.00;11.30;;;;;;;0.45;89.18;102812.20;106332;1270;61007;-70
2022/12/04 07:59:01;;;;;;;19.60;11.70;;;;;;;0.55;88.32;102817.02;106128;1278;72807;-71
2022/12/04 08:01:30;;;;;;;22.70;12.50;;;;;;;0.57;88.65;102809.15;106377;1281;71788;-70
2022/12/04 08:04:01;;;;;;;23.00;11.50;;;;;;;0.61;88.20;102820.65;106172;1287;70289;-71
2022/12/04 08:06:34;;;;;;;19.70;11.20;;;;;;;0.57;87.25;102820.30;106470;1281;74176;-70
2022/12/04 08:09:06;;;;;;;20.60;11.60;;;;;;;0.63;86.78;102822.36;106387;1275;61018;-70
2022/12/04 08:11:38;;;;;;;21.50;12.10;;;;;;;0.56;88.20;102818.41;106576;1276;61557;-72
2022/12/04 08:14:09;;;;;;;21.70;11.50;;;;;;;0.57;87.77;102813.80;106186;1287;72612;-71
2022/12/04 08:16:38;;;;;;;18.60;11.40;;;;;;;0.64;86.84;102812.25;106285;1281;69900;-71
2022/12/04 08:19:07;;;;;;;20.30;11.70;;;;;;;0.76;86.61;102811.42;106557;1284;68719;-71
2022/12/04 08:21:35;;;;;;;20.50;11.20;;;;;;;0.86;86.83;102804.23;106409;1277;74530;-76
2022/12/04 08:24:04;;;;;;;23.50;12.20;;;;;;;0.88;86.87;102802.35;106393;1286;58682;-75
2022/12/04 08:26:33;;;;;;;23.30;12.20;;;;;;;1.04;86.46;102795.51;106385;1283;59536;-75
2022/12/04 08:29:03;;;;;;;19.40;11.80;;;;;;;1.13;85.95;102796.70;106374;1286;71670;-77
2022/12/04 08:31:34;;;;;;;23.50;11.50;;;;;;;1.13;84.91;102794.13;106460;1286;72254;-76
2022/12/04 08:34:06;;;;;;;22.60;12.30;;;;;;;1.32;86.90;102794.30;106197;1289;69062;-77
2022/12/04 08:36:35;;;;;;;21.20;10.70;;;;;;;1.17;85.83;102788.81;106231;1275;73985;-76
2022/12/04 08:39:03;;;;;;;20.90;11.50;;;;;;;1.24;84.52;102788.11;106420;1278;59297;-76
2022/12/04 08:41:32;;;;;;;18.30;11.00;;;;;;;1.03;84.84;102786.75;106398;1287;58665;-77
2022/12/04 08:44:01;;;;;;;17.80;11.80;;;;;;;1.10;85.25;102787.27;106225;1292;70816;-76
2022/12/04 08:46:30;;;;;;;21.10;12.30;;;;;;;1.14;86.55;102780.40;106462;1290;70221;-77
2022/12/04 08:48:59;;;;;;;22.20;13.20;;;;;;;1.17;84.42;102788.13;106232;1283;68730;-77
2022/12/04 08:51:30;;;;;;;25.20;13.10;;;;;;;1.12;84.90;102784.19;106305;1279;73771;-75
2022/12/04 08:54:05;;;;;;;20.90;11.40;;;;;;;1.20;85.95;102783.14;106434;1281;59230;-76
2022/12/04 08:56:36;;;;;;;19.60;12.00;;;;;;;1.30;84.61;102785.89;106342;1283;59045;-76
2022/12/04 08:59:05;;;;;;;21.90;12.20;;;;;;;1.26;84.53;102782.11;106280;1286;72586;-76
2022/12/04 09:01:34;;;;;;;21.70;13.70;;;;;;;1.26;84.86;102780.39;106205;1287;69438;-75
2022/12/04 09:04:03;;;;;;;20.00;12.00;;;;;;;1.19;84.44;102775.75;106421;1281;69888;-75
2022/12/04 09:06:32;;;;;;;19.80;12.30;;;;;;;1.28;84.44;102781.77;106549;1286;74127;-76
2022/12/04 09:09:00;;;;;;;21.30;13.30;;;;;;;1.24;84.52;102782.80;106176;1278;60886;-76
2022/12/04 09:11:31;;;;;;;21.90;12.90;;;;;;;1.25;85.96;102782.63;106418;1286;60108;-75
2022/12/04 09:14:01;;;;;;;24.50;14.00;;;;;;;1.46;85.31;102780.20;106406;1281;74147;-76
2022/12/04 09:16:31;;;;;;;19.40;11.70;;;;;;;1.45;83.55;102779.00;106247;1278;70405;-75
2022/12/04 09:19:00;;;;;;;17.80;11.70;;;;;;;1.43;84.34;102776.27;106230;1287;69943;-76
2022/12/04 09:21:28;;;;;;;19.50;12.50;;;;;;;1.60;83.23;102776.73;106328;1286;73722;-74
2022/12/04 09:23:59;;;;;;;17.20;11.20;;;;;;;1.43;83.12;102770.59;106411;1281;58656;-76
2022/12/04 09:26:31;;;;;;;20.40;11.30;;;;;;;1.46;83.02;102773.50;106077;1289;60640;-75
2022/12/04 09:29:02;;;;;;;19.20;11.40;;;;;;;1.54;83.46;102772.80;106500;1275;74417;-77
2022/12/04 09:31:31;;;;;;;17.90;11.00;;;;;;;1.46;83.65;102774.17;106535;1290;72765;-74
2022/12/04 09:34:01;;;;;;;20.10;11.90;;;;;;;1.49;83.63;102773.84;106403;1279;68209;-76
2022/12/04 09:36:29;;;;;;;19.60;11.20;;;;;;;1.51;83.96;102772.12;106130;1290;73163;-77
2022/12/04 09:38:58;;;;;;;20.40;12.00;;;;;;;1.60;82.96;102767.80;106384;1283;58606;-75
2022/12/04 09:42:10;;;;;;;21.80;11.90;;;;;;;1.42;83.92;102769.73;106389;1276;59862;-77
2022/12/04 09:44:48;;;;;;;20.00;10.70;;;;;;;1.30;82.27;102764.94;106209;1283;72862;-76
2022/12/04 09:47:39;;;;;;;18.90;11.60;;;;;;;1.34;82.74;102760.13;106195;1281;72642;-77
2022/12/04 09:50:33;;;;;;;21.10;10.60;;;;;;;1.44;83.04;102755.98;106023;1285;71200;-77
2022/12/04 09:53:21;;;;;;;18.20;10.70;;;;;;;1.39;82.43;102753.77;106468;1281;74013;-80
2022/12/04 09:56:11;;;;;;;21.40;11.20;;;;;;;1.45;82.61;102753.75;106402;1275;59579;-76
2022/12/04 09:58:54;;;;;;;18.00;11.70;;;;;;;1.42;81.89;102753.08;106450;1281;60755;-80
2022/12/04 10:01:50;;;;;;;17.10;9.70;;;;;;;1.45;83.08;102756.67;106557;1277;70763;-80
2022/12/04 10:04:19;;;;;;;22.50;11.40;;;;;;;1.37;81.91;102754.63;106461;1280;70493;-80
2022/12/04 10:07:13;;;;;;;18.30;10.80;;;;;;;1.35;81.64;102748.45;106278;1280;68178;-76
2022/12/04 10:09:58;;;;;;;17.70;9.80;;;;;;;1.38;82.50;102744.49;106362;1282;64903;-79
2022/12/04 10:13:11;;;;;;;15.40;9.50;;;;;;;1.34;82.11;102743.30;106377;1282;60971;-78
2022/12/04 10:15:53;;;;;;;19.70;12.50;;;;;;;1.42;81.58;102742.45;106414;1286;59900;-82
2022/12/04 10:18:27;;;;;;;18.90;11.30;;;;;;;1.56;83.91;102742.56;106181;1285;72843;-79
2022/12/04 10:21:05;;;;;;;20.90;12.90;;;;;;;1.63;81.95;102735.86;106529;1275;69426;-76
2022/12/04 10:24:00;;;;;;;20.60;13.30;;;;;;;1.62;82.93;102732.94;106068;1281;69078;-77
2022/12/04 10:26:38;;;;;;;22.20;12.30;;;;;;;1.73;82.04;102730.16;106099;1282;64062;-75
2022/12/04 10:29:21;;;;;;;20.70;12.70;;;;;;;1.64;81.63;102724.85;106176;1274;61362;-77
2022/12/04 10:31:53;;;;;;;21.50;13.20;;;;;;;1.58;81.50;102726.07;106017;1284;61072;-76
2022/12/04 10:34:28;;;;;;;20.80;12.20;;;;;;;1.69;83.05;102723.13;106273;1283;72332;-80
2022/12/04 10:37:07;;;;;;;19.40;11.10;;;;;;;1.73;82.84;102720.02;106063;1277;72019;-78
2022/12/04 10:39:58;;;;;;;19.90;11.90;;;;;;;1.84;82.37;102718.77;106173;1285;68843;-76
2022/12/04 10:42:51;;;;;;;15.80;10.40;;;;;;;1.84;81.21;102714.99;106126;1283;73874;-79
2022/12/04 10:45:21;;;;;;;;;;;;;;;1.66;81.15;102713.67;106209;1289;57811;-76
2022/12/04 10:47:52;;;;;;;20.90;12.90;;;;;;;1.65;82.23;102718.49;106149;1286;59023;-79
2022/12/04 10:50:24;;;;;;;22.10;13.80;;;;;;;1.57;81.25;102715.95;106171;1289;73607;-77
2022/12/04 10:52:53;;;;;;;22.70;12.20;;;;;;;1.46;81.51;102713.75;106508;1278;69740;-78
2022/12/04 10:55:31;;;;;;;28.40;13.80;;;;;;;1.65;81.98;102706.98;106185;1283;69644;-78
2022/12/04 10:58:01;;;;;;;21.90;12.50;;;;;;;1.55;81.48;102708.56;106244;1287;71888;-75
2022/12/04 11:00:35;;;;;;;21.80;11.80;;;;;;;1.56;81.99;102708.90;106255;1281;58803;-74
2022/12/04 11:03:20;;;;;;;20.70;12.50;;;;;;;1.56;82.13;102704.96;106284;1280;60577;-74
2022/12/04 11:06:09;;;;;;;22.70;14.00;;;;;;;1.56;81.84;102699.64;106069;1283;64787;-74
2022/12/04 11:08:43;;;;;;;20.20;12.70;;;;;;;1.59;81.66;102699.29;106480;1286;61486;-74
2022/12/04 11:11:14;;;;;;;23.40;12.40;;;;;;;1.58;81.26;102702.38;106390;1280;68703;-74
2022/12/04 11:13:43;;;;;;;22.40;12.70;;;;;;;1.60;82.11;102706.16;106093;1287;70517;-74
2022/12/04 11:16:59;;;;;;;19.90;11.50;;;;;;;1.59;81.51;102704.61;106357;1287;62143;-75
2022/12/04 11:19:31;;;;;;;25.40;12.20;;;;;;;1.45;82.09;102697.95;106095;1287;57677;-73
2022/12/04 11:22:19;;;;;;;20.10;12.00;;;;;;;1.43;82.16;102700.02;106443;1286;71630;-74
2022/12/04 11:24:56;;;;;;;18.70;11.30;;;;;;;1.48;81.95;102693.98;106569;1277;70673;-73
2022/12/04 11:27:33;;;;;;;19.40;12.60;;;;;;;1.43;82.34;102688.00;106148;1281;70583;-74
2022/12/04 11:30:15;;;;;;;20.30;12.20;;;;;;;1.48;82.53;102687.46;106262;1283;62954;-75
2022/12/04 11:32:44;;;;;;;17.90;10.70;;;;;;;1.51;82.35;102688.49;106138;1289;59431;-77
2022/12/04 11:35:23;;;;;;;18.60;11.20;;;;;;;1.31;82.50;102683.23;106278;1290;58820;-77
2022/12/04 11:38:13;;;;;;;24.10;12.90;;;;;;;1.26;81.86;102687.70;106121;1286;73662;-74
2022/12/04 11:40:52;;;;;;;25.00;14.40;;;;;;;1.25;81.63;102691.30;106493;1283;61304;-76
2022/12/04 11:43:25;;;;;;;28.60;12.60;;;;;;;1.20;82.41;102692.52;106205;1287;69535;-75
2022/12/04 11:46:05;;;;;;;24.90;12.60;;;;;;;1.34;82.52;102688.72;106296;1281;72819;-74
2022/12/04 11:48:43;;;;;;;20.40;13.00;;;;;;;1.31;82.10;102687.17;106341;1281;61845;-77
2022/12/04 11:51:26;;;;;;;21.90;13.00;;;;;;;1.17;81.97;102691.83;106275;1283;59746;-73
2022/12/04 11:54:16;;;;;;;20.90;12.40;;;;;;;1.19;82.51;102690.80;106337;1281;72520;-85
2022/12/04 11:56:54;;;;;;;18.60;10.80;;;;;;;1.22;81.96;102692.34;106556;1277;72178;-73
2022/12/04 12:00:04;;;;;;;23.60;12.80;;;;;;;1.12;82.28;102693.72;106188;1284;70851;-73